sensor_id;sensor_type;location;lat;lon;timestamp;P1;durP1;ratioP1;P2;durP2;ratioP2
38085;SDS011;23896;50.678;10.924;2023-05-07T00:00:56;22.52;;;19.45;;
38085;SDS011;23896;50.678;10.924;2023-05-07T00:03:24;21.63;;;18.38;;
38085;SDS011;23896;50.678;10.924;2023-05-07T00:05:51;21.55;;;17.65;;
38085;SDS011;23896;50.678;10.924;2023-05-07T00:08:18;23.38;;;19.90;;
38085;SDS011;23896;50.678;10.924;2023-05-07T00:10:44;23.75;;;19.77;;
38085;SDS011;23896;50.678;10.924;2023-05-07T00:13:11;22.92;;;20.48;;
38085;SDS011;23896;50.678;10.924;2023-05-07T00:15:37;22.25;;;19.85;;
38085;SDS011;23896;50.678;10.924;2023-05-07T00:18:03;22.88;;;19.88;;
38085;SDS011;23896;50.678;10.924;2023-05-07T00:20:30;26.65;;;20.70;;
38085;SDS011;23896;50.678;10.924;2023-05-07T00:22:56;22.38;;;19.38;;
38085;SDS011;23896;50.678;10.924;2023-05-07T00:25:22;30.27;;;20.80;;
38085;SDS011;23896;50.678;10.924;2023-05-07T00:27:48;22.27;;;19.98;;
38085;SDS011;23896;50.678;10.924;2023-05-07T00:30:14;21.20;;;19.02;;
38085;SDS011;23896;50.678;10.924;2023-05-07T00:32:44;25.98;;;19.80;;
38085;SDS011;23896;50.678;10.924;2023-05-07T00:35:10;25.95;;;20.05;;
38085;SDS011;23896;50.678;10.924;2023-05-07T00:37:37;24.65;;;20.02;;
38085;SDS011;23896;50.678;10.924;2023-05-07T00:40:03;23.48;;;19.98;;
38085;SDS011;23896;50.678;10.924;2023-05-07T00:42:32;25.90;;;19.80;;
38085;SDS011;23896;50.678;10.924;2023-05-07T00:44:58;23.70;;;20.27;;
38085;SDS011;23896;50.678;10.924;2023-05-07T00:47:26;25.25;;;21.23;;
38085;SDS011;23896;50.678;10.924;2023-05-07T00:49:52;23.77;;;19.50;;
38085;SDS011;23896;50.678;10.924;2023-05-07T00:52:18;23.45;;;20.92;;
38085;SDS011;23896;50.678;10.924;2023-05-07T00:54:45;23.50;;;20.90;;
38085;SDS011;23896;50.678;10.924;2023-05-07T00:57:12;25.08;;;21.08;;
38085;SDS011;23896;50.678;10.924;2023-05-07T00:59:41;25.83;;;21.17;;
38085;SDS011;23896;50.678;10.924;2023-05-07T01:02:07;27.42;;;21.02;;
38085;SDS011;23896;50.678;10.924;2023-05-07T01:04:33;24.15;;;20.83;;
38085;SDS011;23896;50.678;10.924;2023-05-07T01:07:00;25.85;;;19.90;;
38085;SDS011;23896;50.678;10.924;2023-05-07T01:09:28;26.38;;;21.70;;
38085;SDS011;23896;50.678;10.924;2023-05-07T01:11:54;27.50;;;20.15;;
38085;SDS011;23896;50.678;10.924;2023-05-07T01:14:22;25.30;;;21.52;;
38085;SDS011;23896;50.678;10.924;2023-05-07T01:16:48;23.02;;;20.52;;
38085;SDS011;23896;50.678;10.924;2023-05-07T01:19:16;26.48;;;21.60;;
38085;SDS011;23896;50.678;10.924;2023-05-07T01:21:45;24.48;;;20.65;;
38085;SDS011;23896;50.678;10.924;2023-05-07T01:24:12;26.02;;;21.48;;
38085;SDS011;23896;50.678;10.924;2023-05-07T01:26:39;35.08;;;22.92;;
38085;SDS011;23896;50.678;10.924;2023-05-07T01:29:05;29.50;;;22.88;;
38085;SDS011;23896;50.678;10.924;2023-05-07T01:31:32;26.70;;;23.58;;
38085;SDS011;23896;50.678;10.924;2023-05-07T01:33:59;30.25;;;23.38;;
38085;SDS011;23896;50.678;10.924;2023-05-07T01:36:25;30.75;;;24.05;;
38085;SDS011;23896;50.678;10.924;2023-05-07T01:38:52;29.45;;;24.77;;
38085;SDS011;23896;50.678;10.924;2023-05-07T01:41:19;30.33;;;25.83;;
38085;SDS011;23896;50.678;10.924;2023-05-07T01:43:45;31.63;;;26.42;;
38085;SDS011;23896;50.678;10.924;2023-05-07T01:46:13;34.58;;;26.60;;
38085;SDS011;23896;50.678;10.924;2023-05-07T01:48:40;32.97;;;27.38;;
38085;SDS011;23896;50.678;10.924;2023-05-07T01:51:11;33.05;;;26.88;;
38085;SDS011;23896;50.678;10.924;2023-05-07T01:53:40;36.05;;;27.95;;
38085;SDS011;23896;50.678;10.924;2023-05-07T01:56:07;28.98;;;25.35;;
38085;SDS011;23896;50.678;10.924;2023-05-07T01:58:33;30.17;;;25.50;;
38085;SDS011;23896;50.678;10.924;2023-05-07T02:00:59;29.73;;;24.77;;
38085;SDS011;23896;50.678;10.924;2023-05-07T02:03:26;30.92;;;26.27;;
38085;SDS011;23896;50.678;10.924;2023-05-07T02:05:52;33.60;;;25.83;;
38085;SDS011;23896;50.678;10.924;2023-05-07T02:08:18;29.30;;;24.65;;
38085;SDS011;23896;50.678;10.924;2023-05-07T02:10:44;28.05;;;23.70;;
38085;SDS011;23896;50.678;10.924;2023-05-07T02:13:10;31.38;;;23.92;;
38085;SDS011;23896;50.678;10.924;2023-05-07T02:15:36;31.80;;;26.52;;
38085;SDS011;23896;50.678;10.924;2023-05-07T02:18:04;31.23;;;25.58;;
38085;SDS011;23896;50.678;10.924;2023-05-07T02:20:32;30.88;;;24.67;;
38085;SDS011;23896;50.678;10.924;2023-05-07T02:22:58;30.52;;;25.33;;
38085;SDS011;23896;50.678;10.924;2023-05-07T02:25:25;28.50;;;24.63;;
38085;SDS011;23896;50.678;10.924;2023-05-07T02:27:51;32.42;;;27.85;;
38085;SDS011;23896;50.678;10.924;2023-05-07T02:30:17;33.50;;;26.60;;
38085;SDS011;23896;50.678;10.924;2023-05-07T02:32:46;32.42;;;27.05;;
38085;SDS011;23896;50.678;10.924;2023-05-07T02:35:12;30.67;;;26.08;;
38085;SDS011;23896;50.678;10.924;2023-05-07T02:37:41;33.33;;;26.42;;
38085;SDS011;23896;50.678;10.924;2023-05-07T02:40:09;32.58;;;27.20;;
38085;SDS011;23896;50.678;10.924;2023-05-07T02:42:37;30.83;;;25.55;;
38085;SDS011;23896;50.678;10.924;2023-05-07T02:45:03;34.20;;;27.33;;
38085;SDS011;23896;50.678;10.924;2023-05-07T02:47:29;33.72;;;26.58;;
38085;SDS011;23896;50.678;10.924;2023-05-07T02:49:56;34.65;;;27.58;;
38085;SDS011;23896;50.678;10.924;2023-05-07T02:52:22;37.50;;;28.48;;
38085;SDS011;23896;50.678;10.924;2023-05-07T02:54:48;35.72;;;29.13;;
38085;SDS011;23896;50.678;10.924;2023-05-07T02:57:14;37.47;;;29.33;;
38085;SDS011;23896;50.678;10.924;2023-05-07T02:59:41;34.63;;;27.10;;
38085;SDS011;23896;50.678;10.924;2023-05-07T03:02:07;31.67;;;25.80;;
38085;SDS011;23896;50.678;10.924;2023-05-07T03:04:34;32.38;;;25.90;;
38085;SDS011;23896;50.678;10.924;2023-05-07T03:07:00;38.70;;;29.08;;
38085;SDS011;23896;50.678;10.924;2023-05-07T03:09:26;36.22;;;27.33;;
38085;SDS011;23896;50.678;10.924;2023-05-07T03:11:52;37.60;;;28.00;;
38085;SDS011;23896;50.678;10.924;2023-05-07T03:14:19;32.83;;;26.90;;
38085;SDS011;23896;50.678;10.924;2023-05-07T03:16:46;31.17;;;25.60;;
38085;SDS011;23896;50.678;10.924;2023-05-07T03:19:12;38.58;;;28.42;;
38085;SDS011;23896;50.678;10.924;2023-05-07T03:21:38;39.58;;;26.05;;
38085;SDS011;23896;50.678;10.924;2023-05-07T03:24:04;37.38;;;27.25;;
38085;SDS011;23896;50.678;10.924;2023-05-07T03:26:31;35.42;;;26.65;;
38085;SDS011;23896;50.678;10.924;2023-05-07T03:29:01;36.75;;;27.48;;
38085;SDS011;23896;50.678;10.924;2023-05-07T03:31:27;33.65;;;25.17;;
38085;SDS011;23896;50.678;10.924;2023-05-07T03:33:54;40.70;;;27.27;;
38085;SDS011;23896;50.678;10.924;2023-05-07T03:36:20;33.53;;;25.85;;
38085;SDS011;23896;50.678;10.924;2023-05-07T03:38:49;34.70;;;25.75;;
38085;SDS011;23896;50.678;10.924;2023-05-07T03:41:15;34.60;;;26.33;;
38085;SDS011;23896;50.678;10.924;2023-05-07T03:43:41;35.38;;;25.83;;
38085;SDS011;23896;50.678;10.924;2023-05-07T03:46:08;34.35;;;26.70;;
38085;SDS011;23896;50.678;10.924;2023-05-07T03:48:35;36.22;;;26.75;;
38085;SDS011;23896;50.678;10.924;2023-05-07T03:51:01;33.83;;;26.23;;
38085;SDS011;23896;50.678;10.924;2023-05-07T03:53:28;39.45;;;26.70;;
38085;SDS011;23896;50.678;10.924;2023-05-07T03:55:54;35.88;;;25.98;;
38085;SDS011;23896;50.678;10.924;2023-05-07T03:58:20;42.28;;;28.70;;
38085;SDS011;23896;50.678;10.924;2023-05-07T04:00:46;36.25;;;26.38;;
38085;SDS011;23896;50.678;10.924;2023-05-07T04:03:13;36.08;;;25.63;;
38085;SDS011;23896;50.678;10.924;2023-05-07T04:05:40;37.38;;;26.35;;
38085;SDS011;23896;50.678;10.924;2023-05-07T04:08:06;32.00;;;25.35;;
38085;SDS011;23896;50.678;10.924;2023-05-07T04:10:32;37.13;;;25.33;;
38085;SDS011;23896;50.678;10.924;2023-05-07T04:12:58;34.67;;;25.30;;
38085;SDS011;23896;50.678;10.924;2023-05-07T04:15:25;33.20;;;24.63;;
38085;SDS011;23896;50.678;10.924;2023-05-07T04:17:52;33.72;;;25.98;;
38085;SDS011;23896;50.678;10.924;2023-05-07T04:20:18;33.53;;;25.65;;
38085;SDS011;23896;50.678;10.924;2023-05-07T04:22:44;38.53;;;26.27;;
38085;SDS011;23896;50.678;10.924;2023-05-07T04:25:12;34.83;;;26.17;;
38085;SDS011;23896;50.678;10.924;2023-05-07T04:27:41;39.03;;;28.02;;
38085;SDS011;23896;50.678;10.924;2023-05-07T04:30:08;36.00;;;27.33;;
38085;SDS011;23896;50.678;10.924;2023-05-07T04:32:34;37.83;;;30.38;;
38085;SDS011;23896;50.678;10.924;2023-05-07T04:35:01;38.03;;;28.23;;
38085;SDS011;23896;50.678;10.924;2023-05-07T04:37:28;41.30;;;31.10;;
38085;SDS011;23896;50.678;10.924;2023-05-07T04:39:54;37.83;;;28.13;;
38085;SDS011;23896;50.678;10.924;2023-05-07T04:42:20;39.58;;;29.65;;
38085;SDS011;23896;50.678;10.924;2023-05-07T04:44:51;37.97;;;27.70;;
38085;SDS011;23896;50.678;10.924;2023-05-07T04:47:19;38.92;;;28.40;;
38085;SDS011;23896;50.678;10.924;2023-05-07T04:49:49;37.72;;;27.48;;
38085;SDS011;23896;50.678;10.924;2023-05-07T04:52:15;37.63;;;27.15;;
38085;SDS011;23896;50.678;10.924;2023-05-07T04:54:42;36.45;;;27.60;;
38085;SDS011;23896;50.678;10.924;2023-05-07T04:57:08;35.83;;;26.70;;
38085;SDS011;23896;50.678;10.924;2023-05-07T04:59:35;36.63;;;27.65;;
38085;SDS011;23896;50.678;10.924;2023-05-07T05:02:01;36.13;;;27.23;;
38085;SDS011;23896;50.678;10.924;2023-05-07T05:04:29;38.90;;;28.13;;
38085;SDS011;23896;50.678;10.924;2023-05-07T05:06:58;37.50;;;27.48;;
38085;SDS011;23896;50.678;10.924;2023-05-07T05:09:25;34.75;;;25.70;;
38085;SDS011;23896;50.678;10.924;2023-05-07T05:11:51;41.10;;;27.77;;
38085;SDS011;23896;50.678;10.924;2023-05-07T05:14:18;36.25;;;26.40;;
38085;SDS011;23896;50.678;10.924;2023-05-07T05:16:44;40.45;;;29.15;;
38085;SDS011;23896;50.678;10.924;2023-05-07T05:19:11;37.83;;;28.10;;
38085;SDS011;23896;50.678;10.924;2023-05-07T05:21:37;37.65;;;27.67;;
38085;SDS011;23896;50.678;10.924;2023-05-07T05:24:05;42.45;;;28.27;;
38085;SDS011;23896;50.678;10.924;2023-05-07T05:26:31;36.55;;;26.80;;
38085;SDS011;23896;50.678;10.924;2023-05-07T05:29:00;37.15;;;26.95;;
38085;SDS011;23896;50.678;10.924;2023-05-07T05:31:26;43.60;;;29.13;;
38085;SDS011;23896;50.678;10.924;2023-05-07T05:33:53;38.38;;;26.80;;
38085;SDS011;23896;50.678;10.924;2023-05-07T05:36:19;36.22;;;26.27;;
38085;SDS011;23896;50.678;10.924;2023-05-07T05:38:45;34.45;;;25.45;;
38085;SDS011;23896;50.678;10.924;2023-05-07T05:41:12;38.78;;;26.55;;
38085;SDS011;23896;50.678;10.924;2023-05-07T05:43:38;37.47;;;27.30;;
38085;SDS011;23896;50.678;10.924;2023-05-07T05:46:04;37.28;;;26.60;;
38085;SDS011;23896;50.678;10.924;2023-05-07T05:48:31;33.22;;;25.25;;
38085;SDS011;23896;50.678;10.924;2023-05-07T05:50:58;35.42;;;25.55;;
38085;SDS011;23896;50.678;10.924;2023-05-07T05:53:24;35.50;;;25.42;;
38085;SDS011;23896;50.678;10.924;2023-05-07T05:55:50;35.83;;;26.83;;
38085;SDS011;23896;50.678;10.924;2023-05-07T05:58:16;35.55;;;26.17;;
38085;SDS011;23896;50.678;10.924;2023-05-07T06:00:44;33.42;;;25.58;;
38085;SDS011;23896;50.678;10.924;2023-05-07T06:03:11;34.95;;;24.95;;
38085;SDS011;23896;50.678;10.924;2023-05-07T06:05:37;38.80;;;26.02;;
38085;SDS011;23896;50.678;10.924;2023-05-07T06:08:04;36.40;;;25.17;;
38085;SDS011;23896;50.678;10.924;2023-05-07T06:10:30;35.35;;;24.52;;
38085;SDS011;23896;50.678;10.924;2023-05-07T06:13:02;31.77;;;24.73;;
38085;SDS011;23896;50.678;10.924;2023-05-07T06:15:28;31.38;;;24.38;;
38085;SDS011;23896;50.678;10.924;2023-05-07T06:17:54;34.10;;;23.98;;
38085;SDS011;23896;50.678;10.924;2023-05-07T06:20:22;35.17;;;24.27;;
38085;SDS011;23896;50.678;10.924;2023-05-07T06:22:49;31.67;;;24.00;;
38085;SDS011;23896;50.678;10.924;2023-05-07T06:25:15;31.52;;;22.48;;
38085;SDS011;23896;50.678;10.924;2023-05-07T06:27:41;29.25;;;22.08;;
38085;SDS011;23896;50.678;10.924;2023-05-07T06:30:12;29.38;;;23.35;;
38085;SDS011;23896;50.678;10.924;2023-05-07T06:32:39;31.60;;;23.60;;
38085;SDS011;23896;50.678;10.924;2023-05-07T06:35:05;26.25;;;20.73;;
38085;SDS011;23896;50.678;10.924;2023-05-07T06:37:32;33.28;;;22.83;;
38085;SDS011;23896;50.678;10.924;2023-05-07T06:39:58;33.75;;;22.30;;
38085;SDS011;23896;50.678;10.924;2023-05-07T06:42:24;32.67;;;21.38;;
38085;SDS011;23896;50.678;10.924;2023-05-07T06:44:53;32.05;;;21.75;;
38085;SDS011;23896;50.678;10.924;2023-05-07T06:47:20;27.23;;;22.77;;
38085;SDS011;23896;50.678;10.924;2023-05-07T06:49:46;27.27;;;20.20;;
38085;SDS011;23896;50.678;10.924;2023-05-07T06:52:12;26.08;;;21.02;;
38085;SDS011;23896;50.678;10.924;2023-05-07T06:54:42;28.73;;;20.20;;
38085;SDS011;23896;50.678;10.924;2023-05-07T06:57:09;26.15;;;18.30;;
38085;SDS011;23896;50.678;10.924;2023-05-07T06:59:36;26.40;;;18.70;;
38085;SDS011;23896;50.678;10.924;2023-05-07T07:02:02;25.42;;;19.35;;
38085;SDS011;23896;50.678;10.924;2023-05-07T07:04:28;23.42;;;19.42;;
38085;SDS011;23896;50.678;10.924;2023-05-07T07:06:55;25.60;;;19.67;;
38085;SDS011;23896;50.678;10.924;2023-05-07T07:09:23;27.58;;;20.23;;
38085;SDS011;23896;50.678;10.924;2023-05-07T07:11:49;19.98;;;16.52;;
38085;SDS011;23896;50.678;10.924;2023-05-07T07:14:15;24.95;;;18.67;;
38085;SDS011;23896;50.678;10.924;2023-05-07T07:16:41;23.23;;;18.05;;
38085;SDS011;23896;50.678;10.924;2023-05-07T07:19:07;22.98;;;18.30;;
38085;SDS011;23896;50.678;10.924;2023-05-07T07:21:34;20.40;;;17.92;;
38085;SDS011;23896;50.678;10.924;2023-05-07T07:24:00;21.30;;;16.92;;
38085;SDS011;23896;50.678;10.924;2023-05-07T07:26:26;21.10;;;16.83;;
38085;SDS011;23896;50.678;10.924;2023-05-07T07:28:52;23.80;;;17.20;;
38085;SDS011;23896;50.678;10.924;2023-05-07T07:31:18;24.45;;;17.90;;
38085;SDS011;23896;50.678;10.924;2023-05-07T07:33:44;22.58;;;17.65;;
38085;SDS011;23896;50.678;10.924;2023-05-07T07:36:14;21.85;;;17.60;;
38085;SDS011;23896;50.678;10.924;2023-05-07T07:38:40;21.48;;;17.42;;
38085;SDS011;23896;50.678;10.924;2023-05-07T07:41:08;19.10;;;15.43;;
38085;SDS011;23896;50.678;10.924;2023-05-07T07:43:34;21.92;;;16.50;;
38085;SDS011;23896;50.678;10.924;2023-05-07T07:46:01;20.75;;;16.90;;
38085;SDS011;23896;50.678;10.924;2023-05-07T07:48:27;28.92;;;22.42;;
38085;SDS011;23896;50.678;10.924;2023-05-07T07:50:53;26.45;;;20.45;;
38085;SDS011;23896;50.678;10.924;2023-05-07T07:53:20;21.63;;;17.52;;
38085;SDS011;23896;50.678;10.924;2023-05-07T07:55:46;21.63;;;17.77;;
38085;SDS011;23896;50.678;10.924;2023-05-07T07:58:19;19.55;;;16.50;;
38085;SDS011;23896;50.678;10.924;2023-05-07T08:00:47;19.98;;;15.68;;
38085;SDS011;23896;50.678;10.924;2023-05-07T08:03:16;20.65;;;16.67;;
38085;SDS011;23896;50.678;10.924;2023-05-07T08:05:46;22.88;;;16.38;;
38085;SDS011;23896;50.678;10.924;2023-05-07T08:08:15;18.00;;;14.07;;
38085;SDS011;23896;50.678;10.924;2023-05-07T08:10:41;17.23;;;13.48;;
38085;SDS011;23896;50.678;10.924;2023-05-07T08:13:07;18.77;;;13.85;;
38085;SDS011;23896;50.678;10.924;2023-05-07T08:15:37;18.48;;;15.82;;
38085;SDS011;23896;50.678;10.924;2023-05-07T08:18:03;18.52;;;14.88;;
38085;SDS011;23896;50.678;10.924;2023-05-07T08:20:30;18.70;;;14.75;;
38085;SDS011;23896;50.678;10.924;2023-05-07T08:22:58;17.52;;;14.70;;
38085;SDS011;23896;50.678;10.924;2023-05-07T08:25:30;19.70;;;16.05;;
38085;SDS011;23896;50.678;10.924;2023-05-07T08:27:59;16.25;;;13.10;;
38085;SDS011;23896;50.678;10.924;2023-05-07T08:30:25;17.63;;;12.93;;
38085;SDS011;23896;50.678;10.924;2023-05-07T08:32:51;14.65;;;13.00;;
38085;SDS011;23896;50.678;10.924;2023-05-07T08:35:18;16.45;;;13.15;;
38085;SDS011;23896;50.678;10.924;2023-05-07T08:37:44;15.52;;;12.93;;
38085;SDS011;23896;50.678;10.924;2023-05-07T08:40:11;15.45;;;13.25;;
38085;SDS011;23896;50.678;10.924;2023-05-07T08:42:43;13.98;;;11.88;;
38085;SDS011;23896;50.678;10.924;2023-05-07T08:45:10;16.27;;;12.27;;
38085;SDS011;23896;50.678;10.924;2023-05-07T08:47:40;14.73;;;11.52;;
38085;SDS011;23896;50.678;10.924;2023-05-07T08:50:09;15.55;;;12.15;;
38085;SDS011;23896;50.678;10.924;2023-05-07T08:52:36;16.77;;;12.88;;
38085;SDS011;23896;50.678;10.924;2023-05-07T08:55:06;16.92;;;14.25;;
38085;SDS011;23896;50.678;10.924;2023-05-07T08:57:33;23.45;;;18.58;;
38085;SDS011;23896;50.678;10.924;2023-05-07T09:00:04;17.30;;;14.30;;
38085;SDS011;23896;50.678;10.924;2023-05-07T09:02:35;16.55;;;14.32;;
38085;SDS011;23896;50.678;10.924;2023-05-07T09:05:01;15.80;;;13.18;;
38085;SDS011;23896;50.678;10.924;2023-05-07T09:07:28;15.63;;;13.30;;
38085;SDS011;23896;50.678;10.924;2023-05-07T09:09:57;14.48;;;11.80;;
38085;SDS011;23896;50.678;10.924;2023-05-07T09:12:24;16.17;;;11.10;;
38085;SDS011;23896;50.678;10.924;2023-05-07T09:14:51;14.32;;;11.90;;
38085;SDS011;23896;50.678;10.924;2023-05-07T09:17:18;16.45;;;12.77;;
38085;SDS011;23896;50.678;10.924;2023-05-07T09:19:44;14.40;;;11.85;;
38085;SDS011;23896;50.678;10.924;2023-05-07T09:22:11;15.65;;;13.75;;
38085;SDS011;23896;50.678;10.924;2023-05-07T09:24:37;13.07;;;11.40;;
38085;SDS011;23896;50.678;10.924;2023-05-07T09:27:04;21.63;;;18.42;;
38085;SDS011;23896;50.678;10.924;2023-05-07T09:29:31;17.17;;;12.40;;
38085;SDS011;23896;50.678;10.924;2023-05-07T09:32:01;13.95;;;12.38;;
38085;SDS011;23896;50.678;10.924;2023-05-07T09:34:28;17.13;;;14.57;;
38085;SDS011;23896;50.678;10.924;2023-05-07T09:36:55;13.70;;;12.13;;
38085;SDS011;23896;50.678;10.924;2023-05-07T09:39:25;19.52;;;15.40;;
38085;SDS011;23896;50.678;10.924;2023-05-07T09:41:51;19.52;;;15.13;;
38085;SDS011;23896;50.678;10.924;2023-05-07T09:44:20;10.85;;;9.40;;
38085;SDS011;23896;50.678;10.924;2023-05-07T09:46:53;10.95;;;9.77;;
38085;SDS011;23896;50.678;10.924;2023-05-07T09:49:23;11.00;;;9.90;;
38085;SDS011;23896;50.678;10.924;2023-05-07T09:51:52;12.52;;;10.10;;
38085;SDS011;23896;50.678;10.924;2023-05-07T09:54:32;11.35;;;10.23;;
38085;SDS011;23896;50.678;10.924;2023-05-07T09:57:02;12.98;;;10.43;;
38085;SDS011;23896;50.678;10.924;2023-05-07T09:59:39;13.20;;;10.18;;
38085;SDS011;23896;50.678;10.924;2023-05-07T10:02:10;11.30;;;9.25;;
38085;SDS011;23896;50.678;10.924;2023-05-07T10:04:40;9.98;;;9.02;;
38085;SDS011;23896;50.678;10.924;2023-05-07T10:07:06;11.10;;;9.73;;
38085;SDS011;23896;50.678;10.924;2023-05-07T10:09:43;12.25;;;8.77;;
38085;SDS011;23896;50.678;10.924;2023-05-07T10:12:11;11.18;;;9.88;;
38085;SDS011;23896;50.678;10.924;2023-05-07T10:17:24;14.00;;;12.30;;
38085;SDS011;23896;50.678;10.924;2023-05-07T10:19:53;12.93;;;10.88;;
38085;SDS011;23896;50.678;10.924;2023-05-07T10:22:20;11.98;;;10.10;;
38085;SDS011;23896;50.678;10.924;2023-05-07T10:24:54;9.95;;;8.98;;
38085;SDS011;23896;50.678;10.924;2023-05-07T10:27:24;14.23;;;11.25;;
38085;SDS011;23896;50.678;10.924;2023-05-07T10:30:00;13.07;;;10.38;;
38085;SDS011;23896;50.678;10.924;2023-05-07T10:32:38;12.70;;;10.05;;
38085;SDS011;23896;50.678;10.924;2023-05-07T10:35:06;12.00;;;10.65;;
38085;SDS011;23896;50.678;10.924;2023-05-07T10:37:36;12.40;;;11.10;;
38085;SDS011;23896;50.678;10.924;2023-05-07T10:40:02;12.40;;;10.48;;
38085;SDS011;23896;50.678;10.924;2023-05-07T10:42:28;15.15;;;9.77;;
38085;SDS011;23896;50.678;10.924;2023-05-07T10:44:54;13.05;;;10.07;;
38085;SDS011;23896;50.678;10.924;2023-05-07T10:47:21;12.95;;;11.55;;
38085;SDS011;23896;50.678;10.924;2023-05-07T10:52:43;12.20;;;10.70;;
38085;SDS011;23896;50.678;10.924;2023-05-07T10:55:18;11.82;;;10.63;;
38085;SDS011;23896;50.678;10.924;2023-05-07T10:57:46;13.77;;;10.95;;
38085;SDS011;23896;50.678;10.924;2023-05-07T11:05:21;12.52;;;10.50;;
38085;SDS011;23896;50.678;10.924;2023-05-07T11:07:54;12.25;;;10.60;;
38085;SDS011;23896;50.678;10.924;2023-05-07T11:10:20;11.57;;;10.13;;
38085;SDS011;23896;50.678;10.924;2023-05-07T11:12:48;14.43;;;12.93;;
38085;SDS011;23896;50.678;10.924;2023-05-07T11:15:15;20.02;;;16.23;;
38085;SDS011;23896;50.678;10.924;2023-05-07T11:17:59;13.25;;;11.38;;
38085;SDS011;23896;50.678;10.924;2023-05-07T11:23:03;11.25;;;9.60;;
38085;SDS011;23896;50.678;10.924;2023-05-07T11:25:32;10.00;;;9.00;;
38085;SDS011;23896;50.678;10.924;2023-05-07T11:28:04;11.77;;;9.90;;
38085;SDS011;23896;50.678;10.924;2023-05-07T11:30:30;13.80;;;11.68;;
38085;SDS011;23896;50.678;10.924;2023-05-07T11:32:57;13.80;;;11.40;;
38085;SDS011;23896;50.678;10.924;2023-05-07T11:35:24;11.98;;;10.27;;
38085;SDS011;23896;50.678;10.924;2023-05-07T11:37:58;12.63;;;10.50;;
38085;SDS011;23896;50.678;10.924;2023-05-07T11:40:28;10.13;;;9.10;;
38085;SDS011;23896;50.678;10.924;2023-05-07T11:42:54;11.77;;;10.45;;
38085;SDS011;23896;50.678;10.924;2023-05-07T11:45:24;12.65;;;11.30;;
38085;SDS011;23896;50.678;10.924;2023-05-07T11:47:57;12.43;;;10.48;;
38085;SDS011;23896;50.678;10.924;2023-05-07T11:50:26;12.18;;;10.18;;
38085;SDS011;23896;50.678;10.924;2023-05-07T11:52:52;12.30;;;9.57;;
38085;SDS011;23896;50.678;10.924;2023-05-07T11:55:20;10.75;;;9.65;;
38085;SDS011;23896;50.678;10.924;2023-05-07T11:57:58;22.45;;;19.27;;
38085;SDS011;23896;50.678;10.924;2023-05-07T12:00:26;12.32;;;11.02;;
38085;SDS011;23896;50.678;10.924;2023-05-07T12:02:52;11.27;;;10.15;;
38085;SDS011;23896;50.678;10.924;2023-05-07T12:05:18;11.65;;;10.23;;
38085;SDS011;23896;50.678;10.924;2023-05-07T12:07:45;13.27;;;10.23;;
38085;SDS011;23896;50.678;10.924;2023-05-07T12:10:11;10.10;;;9.02;;
38085;SDS011;23896;50.678;10.924;2023-05-07T12:12:39;10.82;;;9.65;;
38085;SDS011;23896;50.678;10.924;2023-05-07T12:15:16;12.43;;;10.43;;
38085;SDS011;23896;50.678;10.924;2023-05-07T12:17:43;11.27;;;10.15;;
38085;SDS011;23896;50.678;10.924;2023-05-07T12:20:10;10.80;;;9.75;;
38085;SDS011;23896;50.678;10.924;2023-05-07T12:22:36;11.52;;;10.32;;
38085;SDS011;23896;50.678;10.924;2023-05-07T12:25:06;11.73;;;9.85;;
38085;SDS011;23896;50.678;10.924;2023-05-07T12:27:32;10.02;;;9.10;;
38085;SDS011;23896;50.678;10.924;2023-05-07T12:30:02;9.50;;;8.50;;
38085;SDS011;23896;50.678;10.924;2023-05-07T12:32:28;14.30;;;9.38;;
38085;SDS011;23896;50.678;10.924;2023-05-07T12:35:05;12.32;;;9.07;;
38085;SDS011;23896;50.678;10.924;2023-05-07T12:37:32;10.25;;;8.38;;
38085;SDS011;23896;50.678;10.924;2023-05-07T12:40:04;11.27;;;10.18;;
38085;SDS011;23896;50.678;10.924;2023-05-07T12:42:36;12.68;;;11.35;;
38085;SDS011;23896;50.678;10.924;2023-05-07T12:45:08;13.80;;;10.60;;
38085;SDS011;23896;50.678;10.924;2023-05-07T12:47:34;11.00;;;9.95;;
38085;SDS011;23896;50.678;10.924;2023-05-07T12:50:02;11.13;;;10.07;;
38085;SDS011;23896;50.678;10.924;2023-05-07T12:52:32;12.38;;;10.45;;
38085;SDS011;23896;50.678;10.924;2023-05-07T12:55:04;10.75;;;9.65;;
38085;SDS011;23896;50.678;10.924;2023-05-07T12:57:37;13.13;;;9.80;;
38085;SDS011;23896;50.678;10.924;2023-05-07T13:00:04;9.95;;;8.93;;
38085;SDS011;23896;50.678;10.924;2023-05-07T13:02:33;11.38;;;9.07;;
38085;SDS011;23896;50.678;10.924;2023-05-07T13:05:00;10.10;;;9.10;;
38085;SDS011;23896;50.678;10.924;2023-05-07T13:07:27;10.27;;;9.23;;
38085;SDS011;23896;50.678;10.924;2023-05-07T13:09:53;10.93;;;9.82;;
38085;SDS011;23896;50.678;10.924;2023-05-07T13:12:19;8.63;;;7.80;;
38085;SDS011;23896;50.678;10.924;2023-05-07T13:14:46;10.05;;;8.18;;
38085;SDS011;23896;50.678;10.924;2023-05-07T13:17:12;11.23;;;8.25;;
38085;SDS011;23896;50.678;10.924;2023-05-07T13:19:38;9.80;;;8.90;;
38085;SDS011;23896;50.678;10.924;2023-05-07T13:22:07;11.65;;;9.32;;
38085;SDS011;23896;50.678;10.924;2023-05-07T13:24:33;9.35;;;8.27;;
38085;SDS011;23896;50.678;10.924;2023-05-07T13:27:00;9.15;;;7.97;;
38085;SDS011;23896;50.678;10.924;2023-05-07T13:29:26;9.25;;;8.35;;
38085;SDS011;23896;50.678;10.924;2023-05-07T13:31:56;8.70;;;7.90;;
38085;SDS011;23896;50.678;10.924;2023-05-07T13:34:23;10.20;;;9.20;;
38085;SDS011;23896;50.678;10.924;2023-05-07T13:36:49;9.82;;;8.90;;
38085;SDS011;23896;50.678;10.924;2023-05-07T13:39:15;12.07;;;8.10;;
38085;SDS011;23896;50.678;10.924;2023-05-07T13:41:42;11.90;;;8.40;;
38085;SDS011;23896;50.678;10.924;2023-05-07T13:44:12;10.18;;;8.93;;
38085;SDS011;23896;50.678;10.924;2023-05-07T13:46:41;10.43;;;8.13;;
38085;SDS011;23896;50.678;10.924;2023-05-07T13:49:08;8.80;;;7.88;;
38085;SDS011;23896;50.678;10.924;2023-05-07T13:51:38;8.77;;;8.02;;
38085;SDS011;23896;50.678;10.924;2023-05-07T13:54:07;8.60;;;7.75;;
38085;SDS011;23896;50.678;10.924;2023-05-07T13:56:41;10.07;;;7.55;;
38085;SDS011;23896;50.678;10.924;2023-05-07T14:01:54;6.95;;;6.28;;
38085;SDS011;23896;50.678;10.924;2023-05-07T14:04:24;8.75;;;7.35;;
38085;SDS011;23896;50.678;10.924;2023-05-07T14:07:02;8.30;;;7.50;;
38085;SDS011;23896;50.678;10.924;2023-05-07T14:09:42;7.75;;;6.97;;
38085;SDS011;23896;50.678;10.924;2023-05-07T14:12:13;7.88;;;7.10;;
38085;SDS011;23896;50.678;10.924;2023-05-07T14:14:46;8.30;;;6.97;;
38085;SDS011;23896;50.678;10.924;2023-05-07T14:17:23;8.48;;;7.68;;
38085;SDS011;23896;50.678;10.924;2023-05-07T14:19:55;8.02;;;7.20;;
38085;SDS011;23896;50.678;10.924;2023-05-07T14:22:22;7.93;;;7.13;;
38085;SDS011;23896;50.678;10.924;2023-05-07T14:25:02;7.53;;;6.88;;
38085;SDS011;23896;50.678;10.924;2023-05-07T14:27:28;7.50;;;6.63;;
38085;SDS011;23896;50.678;10.924;2023-05-07T14:29:59;9.68;;;7.95;;